Rixford, Pennsylvania
Current Conditions -  °F | °C
As of 7:53 AM on Monday 20 Oct 2014 (Local Time) from KBFD Reporting Station
Overcast Overcast  
Wind Chill: 40°   Ceiling: 8000
Heat Index: 40°   Visibility: 10mi
Dew Point: 33°   Wind: 3mph
Humidity: 77%   Direction: 180°S
Pressure: 29.96"   Gusts: NA
Location:  41.93°N, 78.49°W
Report Text: KBFD 201153Z AUTO 18003KT 10SM FEW060 BKN080 OVC100 04/01 A2996 RMK AO2 SLP158 T00440006 10044 20011 56009
Loading
Personal Weather Stations






























Interactive Weather Map
Tropical Storm Tracking
New forecast layout! Learn more

10-Day Weather Forecast

Advertisements
Track Severe Weather on mobile